createdAt,value
2017-11-26T00:00:19.204Z,0
2017-11-26T00:01:26.302Z,0
2017-11-26T00:02:34.388Z,0
2017-11-26T00:03:42.494Z,0
2017-11-26T00:04:50.559Z,0
2017-11-26T00:05:58.651Z,0
2017-11-26T00:07:06.782Z,0
2017-11-26T00:08:14.927Z,0
2017-11-26T00:09:23.080Z,0
2017-11-26T00:10:31.008Z,0
2017-11-26T00:11:39.111Z,0
2017-11-26T00:12:47.180Z,0
2017-11-26T00:13:55.278Z,0
2017-11-26T00:15:03.373Z,0
2017-11-26T00:16:11.443Z,0
2017-11-26T00:17:19.521Z,0
2017-11-26T00:18:27.612Z,0
2017-11-26T00:19:35.703Z,0
2017-11-26T00:20:43.790Z,0
2017-11-26T00:21:51.876Z,0
2017-11-26T00:22:59.965Z,0
2017-11-26T00:24:08.180Z,0
2017-11-26T00:25:16.144Z,0
2017-11-26T00:26:24.408Z,0
2017-11-26T00:27:32.366Z,0
2017-11-26T00:28:40.401Z,0
2017-11-26T00:29:48.487Z,0
2017-11-26T00:30:56.602Z,0
2017-11-26T00:32:04.662Z,0
2017-11-26T00:33:12.748Z,0
2017-11-26T00:34:20.893Z,0
2017-11-26T00:35:28.999Z,0
2017-11-26T00:36:38.443Z,0
2017-11-26T00:37:45.209Z,0
2017-11-26T00:38:53.195Z,0
2017-11-26T00:40:01.299Z,0
2017-11-26T00:41:09.507Z,0
2017-11-26T00:42:17.439Z,0
2017-11-26T00:43:25.650Z,0
2017-11-26T00:44:33.617Z,0
2017-11-26T00:45:41.699Z,0
2017-11-26T00:46:49.786Z,0
2017-11-26T00:47:57.873Z,0
2017-11-26T00:49:05.960Z,0
2017-11-26T00:50:14.058Z,0
2017-11-26T00:51:22.132Z,0
2017-11-26T00:52:30.224Z,0
2017-11-26T00:53:38.406Z,0
2017-11-26T00:54:46.393Z,0
2017-11-26T00:55:54.484Z,0
2017-11-26T00:57:02.566Z,0
2017-11-26T00:58:10.661Z,0
2017-11-26T00:59:18.741Z,0
2017-11-26T01:00:26.922Z,0
2017-11-26T01:01:34.910Z,0
2017-11-26T01:02:42.998Z,0
2017-11-26T01:03:51.086Z,0
2017-11-26T01:04:59.180Z,0
2017-11-26T01:06:07.270Z,0
2017-11-26T01:07:15.533Z,0
2017-11-26T01:08:23.607Z,0
2017-11-26T01:09:31.897Z,0
2017-11-26T01:10:39.790Z,0
2017-11-26T01:11:47.881Z,0
2017-11-26T01:12:56.056Z,0
2017-11-26T01:14:04.180Z,0
2017-11-26T01:15:12.150Z,0
2017-11-26T01:16:20.371Z,0
2017-11-26T01:17:28.749Z,0
2017-11-26T01:18:36.422Z,0
2017-11-26T01:19:44.508Z,0
2017-11-26T01:20:52.860Z,0
2017-11-26T01:22:00.677Z,0
2017-11-26T01:23:08.841Z,0
2017-11-26T01:24:16.856Z,0
2017-11-26T01:25:25.141Z,0
2017-11-26T01:26:33.026Z,0
2017-11-26T01:27:41.120Z,0
2017-11-26T01:28:49.231Z,0
2017-11-26T01:29:57.402Z,0
2017-11-26T01:31:05.489Z,0
2017-11-26T01:32:13.573Z,0
2017-11-26T01:33:21.658Z,0
2017-11-26T01:34:29.746Z,0
2017-11-26T01:35:37.830Z,0
2017-11-26T01:36:45.918Z,0
2017-11-26T01:37:54.030Z,0
2017-11-26T01:39:02.102Z,0
2017-11-26T01:40:10.366Z,0
2017-11-26T01:41:18.271Z,0
2017-11-26T01:42:26.484Z,0
2017-11-26T01:43:34.446Z,0
2017-11-26T01:44:42.645Z,0
2017-11-26T01:45:50.629Z,0
2017-11-26T01:46:58.812Z,0
2017-11-26T01:48:06.802Z,0
2017-11-26T01:49:14.898Z,0
2017-11-26T01:50:22.974Z,0
2017-11-26T01:51:31.079Z,0
2017-11-26T01:52:39.512Z,0
2017-11-26T01:53:47.599Z,0
2017-11-26T01:54:56.057Z,0
2017-11-26T01:56:03.853Z,0
2017-11-26T01:57:11.856Z,0
2017-11-26T01:58:20.074Z,0
2017-11-26T01:59:28.128Z,0
2017-11-26T02:00:36.164Z,0
2017-11-26T02:01:44.231Z,0
2017-11-26T02:02:52.301Z,0
2017-11-26T02:04:00.518Z,0
2017-11-26T02:05:08.473Z,0
2017-11-26T02:06:16.560Z,0
2017-11-26T02:07:24.649Z,0
2017-11-26T02:08:32.735Z,0
2017-11-26T02:09:40.820Z,0
2017-11-26T02:10:48.907Z,0
2017-11-26T02:11:56.993Z,0
2017-11-26T02:13:05.084Z,0
2017-11-26T02:14:13.171Z,0
2017-11-26T02:15:21.259Z,0
2017-11-26T02:16:29.357Z,0
2017-11-26T02:17:37.450Z,0
2017-11-26T02:18:45.586Z,0
2017-11-26T02:19:53.615Z,0
2017-11-26T02:21:01.700Z,0
2017-11-26T02:22:09.889Z,0
2017-11-26T02:23:17.875Z,0
2017-11-26T02:24:25.964Z,0
2017-11-26T02:25:34.182Z,0
2017-11-26T02:26:42.305Z,0
2017-11-26T02:27:50.425Z,0
2017-11-26T02:28:58.308Z,0
2017-11-26T02:30:06.417Z,0
2017-11-26T02:31:14.555Z,0
2017-11-26T02:32:22.575Z,0
2017-11-26T02:33:30.749Z,0
2017-11-26T02:34:38.742Z,0
2017-11-26T02:35:46.835Z,0
2017-11-26T02:36:55.033Z,0
2017-11-26T02:38:03.127Z,0
2017-11-26T02:39:11.304Z,0
2017-11-26T02:40:19.387Z,0
2017-11-26T02:41:28.758Z,0
2017-11-26T02:42:36.779Z,0
2017-11-26T02:43:44.822Z,0
2017-11-26T02:44:53.036Z,0
2017-11-26T02:46:01.075Z,0
2017-11-26T02:47:09.151Z,0
2017-11-26T02:48:17.238Z,0
2017-11-26T02:49:25.235Z,0
2017-11-26T02:50:33.321Z,0
2017-11-26T02:51:41.409Z,0
2017-11-26T02:52:49.493Z,0
2017-11-26T02:53:57.781Z,0
2017-11-26T02:55:05.886Z,0
2017-11-26T02:56:13.952Z,0
2017-11-26T02:57:22.034Z,0
2017-11-26T02:58:30.150Z,0
2017-11-26T02:59:38.211Z,0
2017-11-26T03:00:46.299Z,0
2017-11-26T03:01:54.385Z,0
2017-11-26T03:03:02.503Z,0
2017-11-26T03:04:10.562Z,0
2017-11-26T03:05:18.642Z,0
2017-11-26T03:06:26.730Z,0
2017-11-26T03:07:34.827Z,0
2017-11-26T03:08:42.936Z,0
2017-11-26T03:09:51.034Z,0
2017-11-26T03:10:59.105Z,0
2017-11-26T03:12:07.177Z,0
2017-11-26T03:13:15.263Z,0
2017-11-26T03:14:23.351Z,0
2017-11-26T03:15:31.435Z,0
2017-11-26T03:16:39.525Z,0
2017-11-26T03:17:47.653Z,0
2017-11-26T03:18:55.701Z,0
2017-11-26T03:20:03.784Z,0
2017-11-26T03:21:11.868Z,0
2017-11-26T03:22:19.960Z,0
2017-11-26T03:23:28.041Z,0
2017-11-26T03:24:36.201Z,0
2017-11-26T03:25:44.294Z,0
2017-11-26T03:26:52.376Z,0
2017-11-26T03:28:00.462Z,0
2017-11-26T03:29:08.549Z,0
2017-11-26T03:30:16.637Z,0
2017-11-26T03:31:24.724Z,0
2017-11-26T03:32:32.812Z,0
2017-11-26T03:33:40.899Z,0
2017-11-26T03:34:48.983Z,0
2017-11-26T03:35:57.071Z,0
2017-11-26T03:37:05.159Z,0
2017-11-26T03:38:13.245Z,0
2017-11-26T03:39:21.330Z,0
2017-11-26T03:40:29.424Z,0
2017-11-26T03:41:37.508Z,0
2017-11-26T03:42:45.600Z,0
2017-11-26T03:43:53.681Z,0
2017-11-26T03:45:01.766Z,0
2017-11-26T03:46:09.855Z,0
2017-11-26T03:47:17.943Z,0
2017-11-26T03:48:26.043Z,0
2017-11-26T03:49:34.115Z,0
2017-11-26T03:50:42.202Z,0
2017-11-26T03:51:50.293Z,0
2017-11-26T03:52:58.382Z,0
2017-11-26T03:54:06.462Z,0
2017-11-26T03:55:14.549Z,0
2017-11-26T03:56:22.636Z,0
2017-11-26T03:57:30.729Z,0
2017-11-26T03:58:38.812Z,0
2017-11-26T03:59:46.898Z,0
2017-11-26T04:00:54.986Z,0
2017-11-26T04:02:03.075Z,0
2017-11-26T04:03:11.177Z,0
2017-11-26T04:04:19.249Z,0
2017-11-26T04:05:27.343Z,0
2017-11-26T04:06:35.439Z,0
2017-11-26T04:07:43.523Z,0
2017-11-26T04:08:51.602Z,0
2017-11-26T04:09:59.694Z,0
2017-11-26T04:11:07.777Z,0
2017-11-26T04:12:15.863Z,0
2017-11-26T04:13:23.952Z,0
2017-11-26T04:14:32.041Z,0
2017-11-26T04:15:40.142Z,0
2017-11-26T04:16:48.212Z,0
2017-11-26T04:17:56.318Z,0
2017-11-26T04:19:04.386Z,0
2017-11-26T04:20:12.474Z,0
2017-11-26T04:21:20.559Z,0
2017-11-26T04:22:28.645Z,0
2017-11-26T04:23:36.729Z,0
2017-11-26T04:24:44.821Z,0
2017-11-26T04:25:52.917Z,0
2017-11-26T04:27:01.005Z,0
2017-11-26T04:28:09.093Z,0
2017-11-26T04:29:17.181Z,0
2017-11-26T04:30:25.263Z,0
2017-11-26T04:31:33.351Z,0
2017-11-26T04:32:41.442Z,0
2017-11-26T04:33:49.550Z,0
2017-11-26T04:34:57.648Z,0
2017-11-26T04:36:05.729Z,0
2017-11-26T04:37:13.820Z,0
2017-11-26T04:38:21.901Z,0
2017-11-26T04:39:29.999Z,0
2017-11-26T04:40:38.081Z,0
2017-11-26T04:41:46.173Z,0
2017-11-26T04:42:54.262Z,0
2017-11-26T04:44:02.349Z,0
2017-11-26T04:45:10.435Z,0
2017-11-26T04:46:18.601Z,0
2017-11-26T04:47:26.688Z,0
2017-11-26T04:48:34.778Z,0
2017-11-26T04:49:42.861Z,0
2017-11-26T04:50:50.954Z,0
2017-11-26T04:51:59.035Z,0
2017-11-26T04:53:07.133Z,0
2017-11-26T04:54:15.221Z,0
2017-11-26T04:55:23.308Z,0
2017-11-26T04:56:31.393Z,0
2017-11-26T04:57:39.487Z,0
2017-11-26T04:58:47.573Z,0
2017-11-26T04:59:55.663Z,0
2017-11-26T05:01:03.746Z,0
2017-11-26T05:02:11.833Z,0
2017-11-26T05:03:19.946Z,0
2017-11-26T05:04:28.009Z,0
2017-11-26T05:05:36.098Z,0
2017-11-26T05:06:44.187Z,0
2017-11-26T05:07:52.271Z,0
2017-11-26T05:09:00.358Z,0
2017-11-26T05:10:08.451Z,0
2017-11-26T05:11:16.553Z,0
2017-11-26T05:12:24.623Z,0
2017-11-26T05:13:32.711Z,0
2017-11-26T05:14:40.799Z,0
2017-11-26T05:15:48.888Z,0
2017-11-26T05:16:56.971Z,0
2017-11-26T05:18:05.061Z,0
2017-11-26T05:19:13.189Z,0
2017-11-26T05:20:21.235Z,0
2017-11-26T05:21:29.318Z,0
2017-11-26T05:22:37.407Z,0
2017-11-26T05:23:45.496Z,0
2017-11-26T05:24:53.581Z,0
2017-11-26T05:26:01.666Z,0
2017-11-26T05:27:09.751Z,0
2017-11-26T05:28:17.838Z,0
2017-11-26T05:29:25.924Z,0
2017-11-26T05:30:34.030Z,0
2017-11-26T05:31:42.119Z,0
2017-11-26T05:32:50.202Z,0
2017-11-26T05:33:58.295Z,0
2017-11-26T05:35:06.376Z,0
2017-11-26T05:36:14.477Z,0
2017-11-26T05:37:22.557Z,0
2017-11-26T05:38:30.649Z,0
2017-11-26T05:39:38.732Z,0
2017-11-26T05:40:46.818Z,0
2017-11-26T05:41:54.903Z,0
2017-11-26T05:43:02.999Z,0
2017-11-26T05:44:11.083Z,0
2017-11-26T05:45:19.169Z,0
2017-11-26T05:46:27.260Z,0
2017-11-26T05:47:35.345Z,0
2017-11-26T05:48:43.451Z,0
2017-11-26T05:49:51.520Z,0
2017-11-26T05:50:59.599Z,0
2017-11-26T05:52:07.684Z,0
2017-11-26T05:53:15.771Z,0
2017-11-26T05:54:23.859Z,0
2017-11-26T05:55:31.948Z,0
2017-11-26T05:56:40.032Z,0
2017-11-26T05:57:48.137Z,0
2017-11-26T05:58:56.211Z,0
2017-11-26T06:00:04.292Z,0
2017-11-26T06:01:12.381Z,0
2017-11-26T06:02:20.467Z,0
2017-11-26T06:03:28.553Z,0
2017-11-26T06:04:36.642Z,0
2017-11-26T06:05:44.724Z,0
2017-11-26T06:06:52.811Z,0
2017-11-26T06:08:00.903Z,0
2017-11-26T06:09:08.987Z,0
2017-11-26T06:10:17.071Z,0
2017-11-26T06:11:25.173Z,0
2017-11-26T06:12:33.274Z,0
2017-11-26T06:13:41.342Z,0
2017-11-26T06:14:49.429Z,0
2017-11-26T06:15:57.520Z,0
2017-11-26T06:17:05.605Z,0
2017-11-26T06:18:13.693Z,0
2017-11-26T06:19:21.871Z,0
2017-11-26T06:20:29.869Z,0
2017-11-26T06:21:37.961Z,0
2017-11-26T06:22:46.040Z,0
2017-11-26T06:23:54.130Z,0
2017-11-26T06:25:02.241Z,0
2017-11-26T06:26:10.298Z,0
2017-11-26T06:27:18.382Z,0
2017-11-26T06:28:26.469Z,0
2017-11-26T06:29:34.557Z,0
2017-11-26T06:30:42.651Z,0
2017-11-26T06:31:50.733Z,0
2017-11-26T06:32:58.815Z,0
2017-11-26T06:34:06.903Z,0
2017-11-26T06:35:14.987Z,0
2017-11-26T06:36:23.077Z,0
2017-11-26T06:37:31.170Z,0
2017-11-26T06:38:39.249Z,0
2017-11-26T06:39:47.334Z,0
2017-11-26T06:40:55.418Z,0
2017-11-26T06:42:03.510Z,0
2017-11-26T06:43:11.593Z,0
2017-11-26T06:44:19.679Z,0
2017-11-26T06:45:27.768Z,0
2017-11-26T06:46:35.854Z,0
2017-11-26T06:47:43.951Z,0
2017-11-26T06:48:52.021Z,0
2017-11-26T06:50:00.110Z,0
2017-11-26T06:51:08.218Z,0
2017-11-26T06:52:16.289Z,0
2017-11-26T06:53:24.376Z,0
2017-11-26T06:54:32.458Z,0
2017-11-26T06:55:40.546Z,4
2017-11-26T06:56:48.631Z,4
2017-11-26T06:57:56.723Z,4
2017-11-26T06:59:04.803Z,4
2017-11-26T07:00:12.889Z,0
2017-11-26T07:01:20.974Z,0
2017-11-26T07:02:29.068Z,0
2017-11-26T07:03:37.153Z,0
2017-11-26T07:04:45.262Z,0
2017-11-26T07:05:53.319Z,4
2017-11-26T07:07:01.403Z,4
2017-11-26T07:08:09.486Z,4
2017-11-26T07:09:17.574Z,4
2017-11-26T07:10:25.660Z,4
2017-11-26T07:11:33.750Z,0
2017-11-26T07:12:41.834Z,0
2017-11-26T07:13:49.920Z,4
2017-11-26T07:14:58.006Z,4
2017-11-26T07:16:06.091Z,4
2017-11-26T07:17:14.336Z,4
2017-11-26T07:18:22.264Z,0
2017-11-26T07:19:30.359Z,4
2017-11-26T07:20:38.460Z,0
2017-11-26T07:21:46.527Z,4
2017-11-26T07:22:54.616Z,4
2017-11-26T07:24:02.697Z,0
2017-11-26T07:25:10.782Z,4
2017-11-26T07:26:18.881Z,4
2017-11-26T07:27:26.955Z,4
2017-11-26T07:28:35.041Z,4
2017-11-26T07:29:43.127Z,4
2017-11-26T07:30:51.217Z,4
2017-11-26T07:31:59.301Z,4
2017-11-26T07:33:07.384Z,8
2017-11-26T07:34:15.472Z,8
2017-11-26T07:35:23.557Z,8
2017-11-26T07:36:31.639Z,4
2017-11-26T07:37:39.725Z,4
2017-11-26T07:38:47.810Z,8
2017-11-26T07:39:55.904Z,8
2017-11-26T07:41:03.981Z,8
2017-11-26T07:42:12.070Z,8
2017-11-26T07:43:20.159Z,12
2017-11-26T07:44:28.254Z,8
2017-11-26T07:45:36.321Z,12
2017-11-26T07:46:44.410Z,12
2017-11-26T07:47:52.494Z,8
2017-11-26T07:49:00.580Z,8
2017-11-26T07:50:08.665Z,8
2017-11-26T07:51:16.753Z,8
2017-11-26T07:52:24.874Z,12
2017-11-26T07:53:32.963Z,12
2017-11-26T07:54:41.046Z,16
2017-11-26T07:55:49.132Z,16
2017-11-26T07:56:57.230Z,16
2017-11-26T07:58:05.303Z,20
2017-11-26T07:59:13.400Z,16
2017-11-26T08:00:21.485Z,16
2017-11-26T08:01:29.567Z,16
2017-11-26T08:02:37.653Z,16
2017-11-26T08:03:45.738Z,16
2017-11-26T08:04:53.827Z,20
2017-11-26T08:06:01.909Z,20
2017-11-26T08:07:09.995Z,20
2017-11-26T08:08:18.082Z,20
2017-11-26T08:09:26.254Z,20
2017-11-26T08:10:34.266Z,24
2017-11-26T08:11:42.354Z,24
2017-11-26T08:12:50.438Z,20
2017-11-26T08:13:58.525Z,32
2017-11-26T08:15:06.610Z,24
2017-11-26T08:16:14.696Z,40
2017-11-26T08:17:22.781Z,40
2017-11-26T08:18:30.865Z,32
2017-11-26T08:19:38.968Z,24
2017-11-26T08:20:47.037Z,28
2017-11-26T08:21:55.135Z,28
2017-11-26T08:23:03.209Z,28
2017-11-26T08:24:11.293Z,28
2017-11-26T08:25:19.383Z,32
2017-11-26T08:26:27.465Z,28
2017-11-26T08:27:35.550Z,16
2017-11-26T08:28:43.637Z,16
2017-11-26T08:29:51.719Z,20
2017-11-26T08:30:59.803Z,20
2017-11-26T08:32:07.887Z,20
2017-11-26T08:33:15.997Z,20
2017-11-26T08:34:24.069Z,16
2017-11-26T08:35:32.571Z,16
2017-11-26T08:36:40.251Z,16
2017-11-26T08:37:48.327Z,12
2017-11-26T08:38:56.407Z,12
2017-11-26T08:40:04.495Z,12
2017-11-26T08:41:12.723Z,12
2017-11-26T08:42:20.808Z,12
2017-11-26T08:43:28.904Z,12
2017-11-26T08:44:36.978Z,12
2017-11-26T08:45:45.092Z,16
2017-11-26T08:46:53.147Z,12
2017-11-26T08:48:01.235Z,12
2017-11-26T08:49:09.317Z,16
2017-11-26T08:50:17.407Z,16
2017-11-26T08:51:25.616Z,20
2017-11-26T08:52:33.578Z,20
2017-11-26T08:53:41.660Z,36
2017-11-26T08:54:49.749Z,32
2017-11-26T08:55:57.839Z,32
2017-11-26T08:57:05.918Z,32
2017-11-26T08:58:14.001Z,48
2017-11-26T08:59:22.093Z,44
2017-11-26T09:00:30.539Z,36
2017-11-26T09:01:38.259Z,36
2017-11-26T09:02:46.372Z,36
2017-11-26T09:03:54.881Z,48
2017-11-26T09:05:02.966Z,48
2017-11-26T09:06:11.075Z,48
2017-11-26T09:07:19.139Z,44
2017-11-26T09:08:27.232Z,52
2017-11-26T09:09:35.316Z,44
2017-11-26T09:10:43.402Z,44
2017-11-26T09:11:51.487Z,28
2017-11-26T09:12:59.572Z,36
2017-11-26T09:14:07.659Z,24
2017-11-26T09:15:15.745Z,24
2017-11-26T09:16:23.830Z,28
2017-11-26T09:17:32.527Z,24
2017-11-26T09:18:40.005Z,28
2017-11-26T09:19:48.090Z,28
2017-11-26T09:20:56.624Z,28
2017-11-26T09:22:04.255Z,28
2017-11-26T09:23:12.341Z,28
2017-11-26T09:24:20.554Z,24
2017-11-26T09:25:28.519Z,24
2017-11-26T09:26:36.653Z,24
2017-11-26T09:27:44.682Z,32
2017-11-26T09:28:52.770Z,24
2017-11-26T09:30:00.860Z,24
2017-11-26T09:31:08.960Z,40
2017-11-26T09:32:17.043Z,24
2017-11-26T09:33:25.159Z,20
2017-11-26T09:34:33.213Z,24
2017-11-26T09:35:41.308Z,24
2017-11-26T09:36:49.388Z,36
2017-11-26T09:37:57.477Z,20
2017-11-26T09:39:05.560Z,20
2017-11-26T09:40:13.671Z,16
2017-11-26T09:41:21.733Z,16
2017-11-26T09:42:29.816Z,20
2017-11-26T09:43:37.902Z,20
2017-11-26T09:44:46.004Z,20
2017-11-26T09:45:54.075Z,20
2017-11-26T09:47:02.177Z,20
2017-11-26T09:48:10.254Z,20
2017-11-26T09:49:18.361Z,28
2017-11-26T09:50:26.442Z,28
2017-11-26T09:51:34.526Z,32
2017-11-26T09:52:42.613Z,36
2017-11-26T09:53:50.704Z,36
2017-11-26T09:54:58.791Z,36
2017-11-26T09:56:06.878Z,36
2017-11-26T09:57:14.961Z,28
2017-11-26T09:58:23.053Z,28
2017-11-26T09:59:31.152Z,32
2017-11-26T10:00:39.220Z,24
2017-11-26T10:01:47.305Z,24
2017-11-26T10:02:55.509Z,24
2017-11-26T10:04:03.488Z,28
2017-11-26T10:05:11.571Z,24
2017-11-26T10:06:19.655Z,24
2017-11-26T10:07:27.738Z,24
2017-11-26T10:08:35.823Z,24
2017-11-26T10:09:43.908Z,24
2017-11-26T10:10:51.992Z,24
2017-11-26T10:12:00.083Z,28
2017-11-26T10:13:08.171Z,24
2017-11-26T10:14:16.257Z,24
2017-11-26T10:15:24.336Z,24
2017-11-26T10:16:32.421Z,24
2017-11-26T10:17:40.522Z,24
2017-11-26T10:18:48.598Z,24
2017-11-26T10:19:56.679Z,24
2017-11-26T10:21:04.783Z,24
2017-11-26T10:22:12.870Z,24
2017-11-26T10:23:20.958Z,24
2017-11-26T10:24:29.049Z,24
2017-11-26T10:25:37.159Z,28
2017-11-26T10:26:45.243Z,24
2017-11-26T10:27:53.322Z,28
2017-11-26T10:29:01.415Z,28
2017-11-26T10:30:09.495Z,24
2017-11-26T10:31:17.578Z,28
2017-11-26T10:32:25.666Z,28
2017-11-26T10:33:33.760Z,28
2017-11-26T10:34:41.846Z,28
2017-11-26T10:35:49.934Z,28
2017-11-26T10:36:58.019Z,24
2017-11-26T10:38:06.109Z,24
2017-11-26T10:39:14.188Z,24
2017-11-26T10:40:22.277Z,24
2017-11-26T10:41:30.360Z,24
2017-11-26T10:42:38.447Z,24
2017-11-26T10:43:46.533Z,24
2017-11-26T10:44:54.620Z,20
2017-11-26T10:46:02.701Z,20
2017-11-26T10:47:10.795Z,20
2017-11-26T10:48:18.874Z,20
2017-11-26T10:49:26.959Z,20
2017-11-26T10:50:35.047Z,20
2017-11-26T10:51:43.193Z,20
2017-11-26T10:52:51.220Z,20
2017-11-26T10:53:59.593Z,16
2017-11-26T10:55:07.680Z,16
2017-11-26T10:56:15.974Z,16
2017-11-26T10:57:24.062Z,12
2017-11-26T10:58:32.164Z,16
2017-11-26T10:59:40.236Z,12
2017-11-26T11:00:48.330Z,12
2017-11-26T11:01:56.401Z,12
2017-11-26T11:03:04.487Z,16
2017-11-26T11:04:12.582Z,16
2017-11-26T11:05:20.660Z,16
2017-11-26T11:06:28.746Z,16
2017-11-26T11:07:36.842Z,8
2017-11-26T11:08:44.915Z,12
2017-11-26T11:09:53.001Z,16
2017-11-26T11:11:01.086Z,12
2017-11-26T11:12:09.171Z,12
2017-11-26T11:13:17.262Z,12
2017-11-26T11:14:25.363Z,12
2017-11-26T11:15:33.428Z,8
2017-11-26T11:16:41.523Z,8
2017-11-26T11:17:49.600Z,8
2017-11-26T11:18:57.684Z,8
2017-11-26T11:20:05.770Z,8
2017-11-26T11:21:13.855Z,12
2017-11-26T11:22:21.938Z,12
2017-11-26T11:23:30.026Z,16
2017-11-26T11:24:38.116Z,20
2017-11-26T11:25:46.201Z,20
2017-11-26T11:26:54.283Z,16
2017-11-26T11:28:02.371Z,28
2017-11-26T11:29:10.454Z,20
2017-11-26T11:30:18.541Z,12
2017-11-26T11:31:26.631Z,12
2017-11-26T11:32:34.719Z,12
2017-11-26T11:33:42.900Z,20
2017-11-26T11:34:50.898Z,20
2017-11-26T11:35:58.986Z,28
2017-11-26T11:37:07.076Z,24
2017-11-26T11:38:15.161Z,20
2017-11-26T11:39:23.247Z,16
2017-11-26T11:40:31.332Z,16
2017-11-26T11:41:39.423Z,12
2017-11-26T11:42:47.509Z,12
2017-11-26T11:43:55.699Z,16
2017-11-26T11:45:03.676Z,8
2017-11-26T11:46:11.762Z,12
2017-11-26T11:47:19.849Z,20
2017-11-26T11:48:27.939Z,16
2017-11-26T11:49:36.027Z,12
2017-11-26T11:50:44.128Z,12
2017-11-26T11:51:52.197Z,16
2017-11-26T11:53:00.281Z,16
2017-11-26T11:54:08.376Z,16
2017-11-26T11:55:16.450Z,12
2017-11-26T11:56:24.538Z,12
2017-11-26T11:57:32.628Z,12
2017-11-26T11:58:40.711Z,12
2017-11-26T11:59:48.795Z,8
2017-11-26T12:00:56.891Z,12
2017-11-26T12:02:04.977Z,20
2017-11-26T12:03:13.063Z,16
2017-11-26T12:04:21.147Z,20
2017-11-26T12:05:29.232Z,20
2017-11-26T12:06:37.336Z,20
2017-11-26T12:07:45.406Z,20
2017-11-26T12:08:53.490Z,24
2017-11-26T12:10:01.573Z,20
2017-11-26T12:11:09.665Z,16
2017-11-26T12:12:17.751Z,16
2017-11-26T12:13:25.836Z,16
2017-11-26T12:14:33.922Z,16
2017-11-26T12:15:42.010Z,20
2017-11-26T12:16:50.099Z,16
2017-11-26T12:17:58.189Z,24
2017-11-26T12:19:06.273Z,24
2017-11-26T12:20:14.640Z,32
2017-11-26T12:21:22.727Z,36
2017-11-26T12:22:30.813Z,28
2017-11-26T12:23:38.901Z,32
2017-11-26T12:24:46.991Z,28
2017-11-26T12:25:55.071Z,28
2017-11-26T12:27:03.153Z,24
2017-11-26T12:28:11.244Z,20
2017-11-26T12:29:19.325Z,20
2017-11-26T12:30:27.413Z,24
2017-11-26T12:31:35.499Z,28
2017-11-26T12:32:43.585Z,20
2017-11-26T12:33:51.931Z,20
2017-11-26T12:35:00.019Z,16
2017-11-26T12:36:08.109Z,16
2017-11-26T12:37:16.197Z,16
2017-11-26T12:38:24.293Z,16
2017-11-26T12:39:32.377Z,16
2017-11-26T12:40:40.458Z,16
2017-11-26T12:41:48.543Z,16
2017-11-26T12:42:56.629Z,12
2017-11-26T12:44:04.714Z,12
2017-11-26T12:45:12.800Z,12
2017-11-26T12:46:20.891Z,12
2017-11-26T12:47:28.969Z,12
2017-11-26T12:48:37.064Z,8
2017-11-26T12:49:45.155Z,8
2017-11-26T12:50:53.244Z,16
2017-11-26T12:52:01.332Z,16
2017-11-26T12:53:09.413Z,16
2017-11-26T12:54:17.602Z,20
2017-11-26T12:55:25.921Z,20
2017-11-26T12:56:33.761Z,16
2017-11-26T12:57:41.758Z,16
2017-11-26T12:58:50.247Z,16
2017-11-26T12:59:57.933Z,12
2017-11-26T13:01:06.018Z,16
2017-11-26T13:02:14.126Z,12
2017-11-26T13:03:22.196Z,16
2017-11-26T13:04:30.278Z,16
2017-11-26T13:05:38.367Z,12
2017-11-26T13:06:46.932Z,12
2017-11-26T13:07:54.634Z,12
2017-11-26T13:09:02.728Z,12
2017-11-26T13:10:10.808Z,8
2017-11-26T13:11:18.899Z,8
2017-11-26T13:12:27.011Z,12
2017-11-26T13:13:35.097Z,12
2017-11-26T13:14:43.185Z,12
2017-11-26T13:15:51.271Z,12
2017-11-26T13:16:59.361Z,12
2017-11-26T13:18:07.445Z,12
2017-11-26T13:19:15.531Z,8
2017-11-26T13:20:23.619Z,8
2017-11-26T13:21:31.703Z,4
2017-11-26T13:22:39.788Z,8
2017-11-26T13:23:47.875Z,4
2017-11-26T13:24:55.960Z,8
2017-11-26T13:26:04.050Z,8
2017-11-26T13:27:12.135Z,16
2017-11-26T13:28:20.223Z,12
2017-11-26T13:29:28.326Z,8
2017-11-26T13:30:36.392Z,12
2017-11-26T13:31:44.481Z,4
2017-11-26T13:32:52.570Z,8
2017-11-26T13:34:00.660Z,8
2017-11-26T13:35:08.741Z,4
2017-11-26T13:36:16.829Z,4
2017-11-26T13:37:24.913Z,4
2017-11-26T13:38:32.999Z,8
2017-11-26T13:39:41.116Z,8
2017-11-26T13:40:49.176Z,8
2017-11-26T13:41:57.254Z,4
2017-11-26T13:43:05.343Z,8
2017-11-26T13:44:13.435Z,8
2017-11-26T13:45:21.517Z,4
2017-11-26T13:46:29.606Z,8
2017-11-26T13:47:37.689Z,8
2017-11-26T13:48:45.778Z,8
2017-11-26T13:49:53.861Z,8
2017-11-26T13:51:01.945Z,4
2017-11-26T13:52:10.060Z,8
2017-11-26T13:53:18.144Z,4
2017-11-26T13:54:26.232Z,8
2017-11-26T13:55:34.336Z,4
2017-11-26T13:56:42.405Z,4
2017-11-26T13:57:50.490Z,4
2017-11-26T13:58:58.577Z,0
2017-11-26T14:00:06.675Z,4
2017-11-26T14:01:14.753Z,0
2017-11-26T14:02:22.837Z,4
2017-11-26T14:03:30.927Z,4
2017-11-26T14:04:39.018Z,4
2017-11-26T14:05:47.097Z,4
2017-11-26T14:06:55.183Z,4
2017-11-26T14:08:03.280Z,0
2017-11-26T14:09:11.369Z,0
2017-11-26T14:10:19.461Z,0
2017-11-26T14:11:27.540Z,0
2017-11-26T14:12:35.629Z,4
2017-11-26T14:13:43.712Z,4
2017-11-26T14:14:51.798Z,4
2017-11-26T14:15:59.898Z,4
2017-11-26T14:17:07.997Z,4
2017-11-26T14:18:16.072Z,4
2017-11-26T14:19:24.162Z,4
2017-11-26T14:20:32.255Z,8
2017-11-26T14:21:40.351Z,8
2017-11-26T14:22:48.436Z,4
2017-11-26T14:23:56.507Z,4
2017-11-26T14:25:04.594Z,8
2017-11-26T14:26:12.684Z,4
2017-11-26T14:27:20.767Z,4
2017-11-26T14:28:28.859Z,4
2017-11-26T14:29:36.947Z,4
2017-11-26T14:30:45.039Z,4
2017-11-26T14:31:53.125Z,4
2017-11-26T14:33:01.215Z,4
2017-11-26T14:34:09.299Z,0
2017-11-26T14:35:17.461Z,4
2017-11-26T14:36:25.470Z,4
2017-11-26T14:37:33.552Z,4
2017-11-26T14:38:41.640Z,4
2017-11-26T14:39:49.727Z,4
2017-11-26T14:40:58.456Z,4
2017-11-26T14:42:05.908Z,4
2017-11-26T14:43:13.994Z,4
2017-11-26T14:44:22.098Z,8
2017-11-26T14:45:30.164Z,4
2017-11-26T14:46:38.263Z,4
2017-11-26T14:47:46.348Z,4
2017-11-26T14:48:54.437Z,4
2017-11-26T14:50:02.518Z,4
2017-11-26T14:51:10.612Z,4
2017-11-26T14:52:18.694Z,4
2017-11-26T14:53:26.780Z,0
2017-11-26T14:54:34.868Z,0
2017-11-26T14:55:42.955Z,0
2017-11-26T14:56:51.047Z,0
2017-11-26T14:57:59.155Z,4
2017-11-26T14:59:07.248Z,4
2017-11-26T15:00:15.309Z,4
2017-11-26T15:01:23.391Z,4
2017-11-26T15:02:31.480Z,4
2017-11-26T15:03:39.574Z,4
2017-11-26T15:04:47.651Z,0
2017-11-26T15:05:55.740Z,0
2017-11-26T15:07:03.826Z,4
2017-11-26T15:08:11.916Z,0
2017-11-26T15:09:20.003Z,0
2017-11-26T15:10:28.087Z,0
2017-11-26T15:11:36.605Z,0
2017-11-26T15:12:44.592Z,4
2017-11-26T15:13:52.353Z,0
2017-11-26T15:15:00.441Z,0
2017-11-26T15:16:08.526Z,0
2017-11-26T15:17:16.611Z,0
2017-11-26T15:18:24.793Z,0
2017-11-26T15:19:32.783Z,0
2017-11-26T15:20:41.109Z,0
2017-11-26T15:21:49.014Z,0
2017-11-26T15:22:57.053Z,0
2017-11-26T15:24:05.150Z,0
2017-11-26T15:25:13.323Z,0
2017-11-26T15:26:21.317Z,0
2017-11-26T15:27:29.441Z,0
2017-11-26T15:28:37.497Z,0
2017-11-26T15:29:45.587Z,0
2017-11-26T15:30:53.720Z,0
2017-11-26T15:32:01.760Z,0
2017-11-26T15:33:09.904Z,0
2017-11-26T15:34:17.938Z,0
2017-11-26T15:35:26.024Z,0
2017-11-26T15:36:34.112Z,0
2017-11-26T15:37:42.203Z,0
2017-11-26T15:38:50.290Z,0
2017-11-26T15:39:58.846Z,0
2017-11-26T15:41:06.459Z,0
2017-11-26T15:42:14.544Z,0
2017-11-26T15:43:22.633Z,0
2017-11-26T15:44:30.875Z,0
2017-11-26T15:45:38.822Z,0
2017-11-26T15:46:47.013Z,0
2017-11-26T15:47:54.980Z,0
2017-11-26T15:49:03.085Z,0
2017-11-26T15:50:11.166Z,0
2017-11-26T15:51:19.257Z,0
2017-11-26T15:52:27.345Z,0
2017-11-26T15:53:35.451Z,0
2017-11-26T15:54:43.515Z,0
2017-11-26T15:55:51.608Z,0
2017-11-26T15:56:59.691Z,0
2017-11-26T15:58:07.776Z,0
2017-11-26T15:59:15.864Z,0
2017-11-26T16:00:23.954Z,0
2017-11-26T16:01:32.035Z,0
2017-11-26T16:02:40.126Z,0
2017-11-26T16:03:48.216Z,0
2017-11-26T16:04:56.300Z,0
2017-11-26T16:06:04.381Z,0
2017-11-26T16:07:12.481Z,0
2017-11-26T16:08:20.570Z,0
2017-11-26T16:09:28.653Z,0
2017-11-26T16:10:36.737Z,0
2017-11-26T16:11:44.827Z,0
2017-11-26T16:12:52.915Z,0
2017-11-26T16:14:01.146Z,0
2017-11-26T16:15:09.238Z,0
2017-11-26T16:16:17.320Z,0
2017-11-26T16:17:25.416Z,0
2017-11-26T16:18:33.494Z,0
2017-11-26T16:19:41.581Z,0
2017-11-26T16:20:49.669Z,0
2017-11-26T16:21:57.755Z,0
2017-11-26T16:23:05.840Z,0
2017-11-26T16:24:13.928Z,0
2017-11-26T16:25:22.097Z,0
2017-11-26T16:26:30.100Z,0
2017-11-26T16:27:38.199Z,0
2017-11-26T16:28:46.283Z,0
2017-11-26T16:29:54.368Z,0
2017-11-26T16:31:02.450Z,0
2017-11-26T16:32:10.534Z,0
2017-11-26T16:33:18.627Z,0
2017-11-26T16:34:26.708Z,0